Time;durP1;ratioP1;P1;durP2;ratioP2;P2;SDS_P1;SDS_P2;PMS_P1;PMS_P2;Temp;Humidity;BMP_temperature;BMP_pressure;BME280_temperature;BME280_humidity;BME280_pressure;Samples;Min_cycle;Max_cycle;Signal;HPM_P1;HPM_P2
2022/10/29 00:00:39;;;;;;;4.65;1.48;;;16.70;78.40;;;;;;5101702;28;20190;-70
2022/10/29 00:03:06;;;;;;;5.15;1.25;;;16.60;78.50;;;;;;5095556;28;20027;-71
2022/10/29 00:05:32;;;;;;;5.68;1.45;;;16.70;78.50;;;;;;5094496;28;20024;-71
2022/10/29 00:07:58;;;;;;;2.03;1.23;;;16.60;78.40;;;;;;5092577;28;20114;-69
2022/10/29 00:10:23;;;;;;;4.85;1.88;;;16.60;78.50;;;;;;5096170;28;20438;-70
2022/10/29 00:12:49;;;;;;;5.28;1.55;;;16.60;78.40;;;;;;5094569;28;20413;-69
2022/10/29 00:15:15;;;;;;;3.15;1.10;;;16.50;78.30;;;;;;5082396;28;20160;-69
2022/10/29 00:17:41;;;;;;;2.20;1.40;;;16.50;78.30;;;;;;5092014;28;20032;-71
2022/10/29 00:20:07;;;;;;;1.80;1.15;;;16.50;78.30;;;;;;5086668;28;20085;-71
2022/10/29 00:22:33;;;;;;;2.17;1.45;;;16.40;78.40;;;;;;5099411;28;20042;-71
2022/10/29 00:24:59;;;;;;;2.35;1.48;;;16.40;78.40;;;;;;5105659;28;20505;-71
2022/10/29 00:27:25;;;;;;;4.30;2.15;;;16.30;78.40;;;;;;5087253;28;20039;-69
2022/10/29 00:29:51;;;;;;;1.50;1.02;;;16.30;78.60;;;;;;5099250;28;20032;-70
2022/10/29 00:32:16;;;;;;;2.42;1.65;;;16.30;78.60;;;;;;5096189;28;20035;-69
2022/10/29 00:34:42;;;;;;;4.03;1.77;;;16.30;78.60;;;;;;5104736;28;20027;-69
2022/10/29 00:37:08;;;;;;;7.32;1.42;;;16.20;78.50;;;;;;5102497;28;20024;-71
2022/10/29 00:39:33;;;;;;;8.48;1.15;;;16.20;78.50;;;;;;5103522;28;20019;-70
2022/10/29 00:42:00;;;;;;;3.45;1.63;;;16.20;78.50;;;;;;5097030;28;20032;-70
2022/10/29 00:44:37;;;;;;;3.58;1.33;;;16.20;78.60;;;;;;5083179;28;20074;-69
2022/10/29 00:47:09;;;;;;;4.70;1.38;;;16.20;78.60;;;;;;5102960;28;20032;-70
2022/10/29 00:49:37;;;;;;;3.80;1.42;;;16.10;78.50;;;;;;5096716;28;20439;-70
2022/10/29 00:52:04;;;;;;;1.63;1.08;;;16.10;78.40;;;;;;5083851;28;20020;-71
2022/10/29 00:54:32;;;;;;;1.50;1.13;;;16.00;78.40;;;;;;5110492;28;20032;-71
2022/10/29 00:57:05;;;;;;;3.53;1.40;;;16.00;78.40;;;;;;5105653;28;20045;-71
2022/10/29 00:59:31;;;;;;;4.45;1.20;;;16.00;78.40;;;;;;5093571;28;20085;-69
2022/10/29 01:01:57;;;;;;;2.33;1.35;;;15.90;78.50;;;;;;5109899;28;20482;-69
2022/10/29 01:04:24;;;;;;;2.47;1.30;;;15.90;78.50;;;;;;5092455;28;20110;-69
2022/10/29 01:06:51;;;;;;;3.92;1.98;;;15.90;78.60;;;;;;5103720;28;20044;-70
2022/10/29 01:09:16;;;;;;;15.35;1.05;;;15.90;78.40;;;;;;5092558;28;20391;-69
2022/10/29 01:11:51;;;;;;;1.80;0.80;;;15.90;78.40;;;;;;5106708;28;20032;-69
2022/10/29 01:14:46;;;;;;;3.03;1.45;;;15.90;78.30;;;;;;5093186;28;20031;-69
2022/10/29 01:17:28;;;;;;;2.90;1.45;;;15.90;78.20;;;;;;5086709;28;20035;-69
2022/10/29 01:20:19;;;;;;;0.90;0.90;;;15.80;78.20;;;;;;5107379;28;20020;-70
2022/10/29 01:22:51;;;;;;;2.58;1.42;;;15.80;78.00;;;;;;5092288;28;20059;-70
2022/10/29 01:25:49;;;;;;;2.20;1.50;;;15.80;78.20;;;;;;5098024;28;20390;-69
2022/10/29 01:28:53;;;;;;;3.90;1.35;;;15.70;78.10;;;;;;5074242;28;20032;-71
2022/10/29 01:31:25;;;;;;;8.15;0.98;;;15.70;78.10;;;;;;5071130;28;20059;-70
2022/10/29 01:34:00;;;;;;;1.70;1.13;;;15.70;78.20;;;;;;5093593;28;20028;-70
2022/10/29 01:36:39;;;;;;;1.60;1.23;;;15.60;78.10;;;;;;5093591;28;20483;-70
2022/10/29 01:39:08;;;;;;;5.15;0.98;;;15.60;78.10;;;;;;5104626;28;20058;-70
2022/10/29 01:41:42;;;;;;;1.15;0.73;;;15.60;78.10;;;;;;5104069;28;20019;-70
2022/10/29 01:44:17;;;;;;;1.65;1.08;;;15.50;77.90;;;;;;5098148;28;20020;-69
2022/10/29 01:46:53;;;;;;;0.82;0.82;;;15.50;77.90;;;;;;5108486;28;20050;-68
2022/10/29 01:49:26;;;;;;;1.67;1.00;;;15.50;78.00;;;;;;5105667;28;20029;-69
2022/10/29 01:51:53;;;;;;;4.10;1.25;;;15.40;78.00;;;;;;5101047;28;20112;-69
2022/10/29 01:54:18;;;;;;;1.85;0.95;;;15.40;78.00;;;;;;5099774;28;20028;-70
2022/10/29 01:56:53;;;;;;;2.13;0.80;;;15.40;78.00;;;;;;5092046;28;20040;-73
2022/10/29 01:59:19;;;;;;;1.90;0.70;;;15.40;78.00;;;;;;5080444;28;20028;-69
2022/10/29 02:02:05;;;;;;;25.92;1.38;;;15.40;78.00;;;;;;5088209;28;20047;-71
2022/10/29 02:04:55;;;;;;;1.73;0.77;;;15.40;77.90;;;;;;5094977;28;20035;-69
2022/10/29 02:07:41;;;;;;;2.00;1.17;;;15.30;78.00;;;;;;5095839;28;20039;-70
2022/10/29 02:10:28;;;;;;;1.65;0.90;;;15.40;78.10;;;;;;5080137;28;20417;-71
2022/10/29 02:12:55;;;;;;;5.30;1.77;;;15.30;78.20;;;;;;5092221;28;20103;-71
2022/10/29 02:15:41;;;;;;;3.72;1.38;;;15.30;78.30;;;;;;5098644;28;20508;-70
2022/10/29 02:18:07;;;;;;;1.50;1.38;;;15.30;78.30;;;;;;5095297;28;20023;-69
2022/10/29 02:20:33;;;;;;;6.05;1.85;;;15.30;78.30;;;;;;5093813;28;20028;-70
2022/10/29 02:22:59;;;;;;;3.60;1.40;;;15.20;78.30;;;;;;5072029;28;20042;-71
2022/10/29 02:25:25;;;;;;;2.80;1.10;;;15.20;78.40;;;;;;5079752;28;20107;-71
2022/10/29 02:27:50;;;;;;;3.05;1.50;;;15.30;78.50;;;;;;5092621;28;20111;-71
2022/10/29 02:30:16;;;;;;;7.63;1.98;;;15.30;78.40;;;;;;5109298;28;20085;-70
2022/10/29 02:32:42;;;;;;;10.07;2.08;;;15.20;78.40;;;;;;5099683;28;20101;-69
2022/10/29 02:35:08;;;;;;;12.60;1.60;;;15.20;78.60;;;;;;5105108;28;20043;-69
2022/10/29 02:37:34;;;;;;;5.50;1.98;;;15.20;78.60;;;;;;5089932;28;20028;-69
2022/10/29 02:40:01;;;;;;;5.35;2.17;;;15.20;79.30;;;;;;5105312;28;20073;-69
2022/10/29 02:42:26;;;;;;;8.23;2.65;;;15.20;78.90;;;;;;5103769;28;20367;-69
2022/10/29 02:44:52;;;;;;;5.82;2.33;;;15.20;78.90;;;;;;5095066;28;20038;-69
2022/10/29 02:47:18;;;;;;;9.35;2.85;;;15.20;79.00;;;;;;5106598;28;20588;-69
2022/10/29 02:49:44;;;;;;;6.40;2.88;;;15.20;79.10;;;;;;5100738;28;20122;-70
2022/10/29 02:52:09;;;;;;;5.68;2.88;;;15.20;79.20;;;;;;5094455;28;20111;-70
2022/10/29 02:54:35;;;;;;;3.28;2.17;;;15.20;79.20;;;;;;5104144;28;20395;-70
2022/10/29 02:57:01;;;;;;;4.90;2.83;;;15.20;79.30;;;;;;5087767;28;20556;-71
2022/10/29 02:59:26;;;;;;;6.75;2.72;;;15.20;79.30;;;;;;5075619;28;20061;-71
2022/10/29 03:01:52;;;;;;;5.72;2.97;;;15.20;79.40;;;;;;5094747;28;20111;-71
2022/10/29 03:04:18;;;;;;;6.25;2.45;;;15.20;79.50;;;;;;5089292;28;20091;-71
2022/10/29 03:06:43;;;;;;;4.05;2.42;;;15.20;79.50;;;;;;5095947;28;20031;-71
2022/10/29 03:09:09;;;;;;;6.40;2.67;;;15.20;79.50;;;;;;5106089;28;20076;-71
2022/10/29 03:11:35;;;;;;;15.13;3.42;;;15.20;79.50;;;;;;5090212;28;20027;-71
2022/10/29 03:14:00;;;;;;;6.72;2.22;;;15.20;79.60;;;;;;5091179;28;20116;-71
2022/10/29 03:16:26;;;;;;;6.07;2.85;;;15.20;79.70;;;;;;5093671;28;20024;-71
2022/10/29 03:18:51;;;;;;;2.53;2.20;;;15.20;79.70;;;;;;5097373;28;20028;-71
2022/10/29 03:21:17;;;;;;;6.22;2.35;;;15.20;79.70;;;;;;5075515;28;20111;-71
2022/10/29 03:23:43;;;;;;;11.82;2.95;;;15.20;79.70;;;;;;5103843;28;20055;-71
2022/10/29 03:26:09;;;;;;;4.85;2.42;;;15.20;79.90;;;;;;5106337;28;20482;-71
2022/10/29 03:28:35;;;;;;;7.22;3.30;;;15.20;79.80;;;;;;5098162;28;20077;-70
2022/10/29 03:31:01;;;;;;;4.13;2.55;;;15.20;79.90;;;;;;5089600;28;20032;-69
2022/10/29 03:33:27;;;;;;;5.07;2.63;;;15.20;79.90;;;;;;5076114;28;20039;-70
2022/10/29 03:36:01;;;;;;;13.30;3.78;;;15.20;79.90;;;;;;5088967;28;20441;-70
2022/10/29 03:38:26;;;;;;;4.60;3.40;;;15.30;80.00;;;;;;5099431;28;20027;-69
2022/10/29 03:40:52;;;;;;;14.25;3.38;;;15.30;80.00;;;;;;5092126;28;20394;-71
2022/10/29 03:43:18;;;;;;;6.97;2.25;;;15.20;80.00;;;;;;5098320;28;20040;-71
2022/10/29 03:45:53;;;;;;;7.15;3.65;;;15.20;80.00;;;;;;5095765;28;20039;-71
2022/10/29 03:48:19;;;;;;;8.15;3.60;;;15.20;80.00;;;;;;5095496;28;20032;-71
2022/10/29 03:50:52;;;;;;;6.28;3.15;;;15.20;80.10;;;;;;5097924;28;20105;-71
2022/10/29 03:53:18;;;;;;;12.48;3.97;;;15.20;80.10;;;;;;5101591;28;20053;-70
2022/10/29 03:55:43;;;;;;;5.40;2.80;;;15.20;80.20;;;;;;5097572;28;20048;-70
2022/10/29 03:58:09;;;;;;;6.10;3.45;;;15.30;80.30;;;;;;5103145;28;20461;-70
2022/10/29 04:00:34;;;;;;;8.65;4.20;;;15.20;80.30;;;;;;5087636;28;20359;-70
2022/10/29 04:03:00;;;;;;;5.10;3.25;;;15.20;80.50;;;;;;5087396;28;20031;-70
2022/10/29 04:05:26;;;;;;;4.82;2.90;;;15.20;80.50;;;;;;5087182;28;20051;-72
2022/10/29 04:07:51;;;;;;;4.00;2.78;;;15.30;80.50;;;;;;5089637;28;20067;-71
2022/10/29 04:10:17;;;;;;;6.90;2.83;;;15.30;80.40;;;;;;5087662;28;20032;-71
2022/10/29 04:12:46;;;;;;;6.45;3.08;;;15.30;80.40;;;;;;5091929;28;20078;-71
2022/10/29 04:15:11;;;;;;;4.78;2.50;;;15.30;80.40;;;;;;5092291;28;20050;-72
2022/10/29 04:17:37;;;;;;;4.80;3.20;;;15.30;80.40;;;;;;5093008;28;20020;-70
2022/10/29 04:20:03;;;;;;;5.25;3.55;;;15.30;80.50;;;;;;5089782;28;20028;-71
2022/10/29 04:22:29;;;;;;;6.78;3.38;;;15.30;80.50;;;;;;5091697;28;20101;-71
2022/10/29 04:24:55;;;;;;;5.40;3.60;;;15.30;80.60;;;;;;5092159;28;20387;-68
2022/10/29 04:27:20;;;;;;;4.63;3.38;;;15.30;80.60;;;;;;5092991;28;20414;-69
2022/10/29 04:29:46;;;;;;;4.63;3.50;;;15.30;80.70;;;;;;5089815;28;20383;-69
2022/10/29 04:32:12;;;;;;;6.95;3.83;;;15.30;80.90;;;;;;5094441;28;20444;-70
2022/10/29 04:34:37;;;;;;;5.93;3.53;;;15.40;80.90;;;;;;5090470;28;20078;-71
2022/10/29 04:37:03;;;;;;;4.88;3.25;;;15.40;81.00;;;;;;5089964;28;20024;-71
2022/10/29 04:39:29;;;;;;;4.07;2.70;;;15.40;80.90;;;;;;5090802;28;20024;-72
2022/10/29 04:41:54;;;;;;;11.15;3.38;;;15.40;80.90;;;;;;5091465;28;20532;-70
2022/10/29 04:44:20;;;;;;;6.38;3.63;;;15.40;80.90;;;;;;5091207;28;20036;-68
2022/10/29 04:46:46;;;;;;;5.53;3.17;;;15.40;81.00;;;;;;5090335;28;20097;-69
2022/10/29 04:49:12;;;;;;;6.07;2.50;;;15.40;81.00;;;;;;5092670;28;20154;-69
2022/10/29 04:51:37;;;;;;;7.80;3.35;;;15.40;81.00;;;;;;5089472;28;20039;-69
2022/10/29 04:54:03;;;;;;;7.70;3.92;;;15.30;80.90;;;;;;5098844;28;20031;-70
2022/10/29 04:56:30;;;;;;;3.92;2.42;;;15.30;80.90;;;;;;5079299;28;20040;-69
2022/10/29 04:58:55;;;;;;;4.68;2.58;;;15.30;80.90;;;;;;5113312;27;20023;-69
2022/10/29 05:01:21;;;;;;;4.90;2.38;;;15.20;80.90;;;;;;5094086;28;20535;-70
2022/10/29 05:03:47;;;;;;;2.72;2.35;;;15.20;80.90;;;;;;5109067;28;20070;-69
2022/10/29 05:06:12;;;;;;;3.95;2.45;;;15.20;80.90;;;;;;5098699;28;20032;-69
2022/10/29 05:08:38;;;;;;;5.22;2.60;;;15.20;80.80;;;;;;5111782;28;20084;-69
2022/10/29 05:11:05;;;;;;;3.30;2.35;;;15.20;80.80;;;;;;5090483;28;20070;-70
2022/10/29 05:13:32;;;;;;;5.13;2.63;;;15.20;80.80;;;;;;5099177;28;20032;-70
2022/10/29 05:15:58;;;;;;;6.85;2.45;;;15.20;80.80;;;;;;5104520;28;20028;-69
2022/10/29 05:18:24;;;;;;;4.78;2.50;;;15.10;80.70;;;;;;5106837;28;20024;-69
2022/10/29 05:20:54;;;;;;;4.85;2.28;;;15.10;80.80;;;;;;5099929;27;20027;-70
2022/10/29 05:23:19;;;;;;;3.05;2.50;;;15.10;80.80;;;;;;5104929;28;20040;-69
2022/10/29 05:25:50;;;;;;;3.75;2.60;;;15.10;80.80;;;;;;5094670;28;20429;-69
2022/10/29 05:28:18;;;;;;;4.50;2.63;;;15.10;80.70;;;;;;5074681;28;20028;-69
2022/10/29 05:30:44;;;;;;;3.13;2.42;;;15.10;80.80;;;;;;5095551;28;20066;-70
2022/10/29 05:33:13;;;;;;;3.53;2.15;;;15.10;80.90;;;;;;5087231;28;20469;-69
2022/10/29 05:35:38;;;;;;;4.55;2.33;;;15.10;80.90;;;;;;5084413;28;20479;-70
2022/10/29 05:38:05;;;;;;;4.38;2.72;;;15.10;80.90;;;;;;5092097;28;20028;-69
2022/10/29 05:40:31;;;;;;;8.02;2.25;;;15.10;81.00;;;;;;5090994;28;20005;-70
2022/10/29 05:42:57;;;;;;;3.88;2.88;;;15.10;81.70;;;;;;5091990;28;20032;-70
2022/10/29 05:45:22;;;;;;;6.90;2.42;;;15.10;81.00;;;;;;5104288;28;20082;-70
2022/10/29 05:47:55;;;;;;;3.55;2.15;;;15.10;81.10;;;;;;5097254;28;20024;-71
2022/10/29 05:50:21;;;;;;;3.53;2.30;;;15.10;81.10;;;;;;5102882;28;20421;-71
2022/10/29 05:52:54;;;;;;;3.50;2.15;;;15.10;81.10;;;;;;5104633;28;20039;-70
2022/10/29 05:55:20;;;;;;;3.90;2.13;;;15.20;81.00;;;;;;5106900;28;20093;-70
2022/10/29 05:57:45;;;;;;;3.85;2.45;;;15.20;81.00;;;;;;5094448;28;20051;-69
2022/10/29 06:00:11;;;;;;;4.65;2.33;;;15.20;80.90;;;;;;5099039;28;20036;-69
2022/10/29 06:02:37;;;;;;;2.28;1.95;;;15.20;81.00;;;;;;5103044;28;20055;-69
2022/10/29 06:05:03;;;;;;;3.85;2.35;;;15.20;81.00;;;;;;5091328;28;20040;-71
2022/10/29 06:07:28;;;;;;;3.63;2.08;;;15.20;80.90;;;;;;5103185;28;20027;-71
2022/10/29 06:09:54;;;;;;;4.00;2.47;;;15.20;81.00;;;;;;5099906;28;20036;-71
2022/10/29 06:12:20;;;;;;;3.83;2.00;;;15.20;81.00;;;;;;5085830;28;20632;-69
2022/10/29 06:14:45;;;;;;;3.25;2.47;;;15.20;81.00;;;;;;5088738;28;20031;-70
2022/10/29 06:17:11;;;;;;;5.25;3.05;;;15.20;81.10;;;;;;5089507;28;20031;-69
2022/10/29 06:19:36;;;;;;;3.67;2.75;;;15.20;81.20;;;;;;5089461;28;20039;-70
2022/10/29 06:22:03;;;;;;;3.75;2.40;;;15.20;81.10;;;;;;5087117;28;20032;-71
2022/10/29 06:24:29;;;;;;;4.03;2.30;;;15.20;81.20;;;;;;5087229;28;20098;-70
2022/10/29 06:26:54;;;;;;;3.47;2.00;;;15.20;81.30;;;;;;5087729;28;20032;-71
2022/10/29 06:29:20;;;;;;;2.88;2.15;;;15.20;81.30;;;;;;5088662;28;20032;-70
2022/10/29 06:31:46;;;;;;;3.58;2.33;;;15.30;81.30;;;;;;5086890;28;20056;-69
2022/10/29 06:34:13;;;;;;;5.95;2.65;;;15.30;81.30;;;;;;5085249;28;20036;-70
2022/10/29 06:36:39;;;;;;;3.53;2.10;;;15.20;81.40;;;;;;5086512;28;20413;-70
2022/10/29 06:39:04;;;;;;;2.97;2.13;;;15.20;81.40;;;;;;5088207;28;20028;-70
2022/10/29 06:41:30;;;;;;;3.40;2.65;;;15.30;81.40;;;;;;5088161;28;20035;-70
2022/10/29 06:43:56;;;;;;;3.65;2.40;;;15.30;81.50;;;;;;5089165;28;20020;-70
2022/10/29 06:46:22;;;;;;;2.35;2.00;;;15.30;81.50;;;;;;5089537;28;20060;-70
2022/10/29 06:48:47;;;;;;;5.60;2.45;;;15.30;81.50;;;;;;5087461;28;20059;-70
2022/10/29 06:51:13;;;;;;;2.38;1.85;;;15.40;81.60;;;;;;5103285;28;20039;-69
2022/10/29 06:53:39;;;;;;;7.43;3.08;;;15.40;81.60;;;;;;5098583;28;20032;-69
2022/10/29 06:56:05;;;;;;;3.22;2.05;;;15.40;81.70;;;;;;5105638;28;20142;-69
2022/10/29 06:58:30;;;;;;;6.05;2.50;;;15.50;81.80;;;;;;5109422;28;20088;-69
2022/10/29 07:00:59;;;;;;;3.15;2.13;;;15.50;81.70;;;;;;5089311;28;20054;-70
2022/10/29 07:03:25;;;;;;;4.30;2.65;;;15.60;81.80;;;;;;5096434;28;20027;-72
2022/10/29 07:05:58;;;;;;;3.83;2.63;;;15.60;81.70;;;;;;5091588;28;20044;-72
2022/10/29 07:08:24;;;;;;;2.78;1.90;;;15.60;81.60;;;;;;5104802;28;20085;-72
2022/10/29 07:10:51;;;;;;;2.83;2.22;;;15.70;81.70;;;;;;5095314;28;20429;-72
2022/10/29 07:13:17;;;;;;;3.10;2.47;;;15.70;81.60;;;;;;5103357;28;20031;-72
2022/10/29 07:15:42;;;;;;;4.18;2.33;;;15.70;81.60;;;;;;5103115;28;20032;-70
2022/10/29 07:18:09;;;;;;;7.57;2.63;;;15.70;81.60;;;;;;5092269;28;20052;-70
2022/10/29 07:20:38;;;;;;;2.90;2.38;;;15.70;82.30;;;;;;5089977;28;20458;-69
2022/10/29 07:23:04;;;;;;;5.90;2.97;;;15.80;81.70;;;;;;5103938;28;20063;-69
2022/10/29 07:25:30;;;;;;;7.63;2.95;;;15.80;81.70;;;;;;5089113;28;20545;-69
2022/10/29 07:28:19;;;;;;;2.88;2.55;;;15.90;81.80;;;;;;5092071;28;20100;-69
2022/10/29 07:30:45;;;;;;;4.18;2.58;;;16.00;81.70;;;;;;5088820;28;20085;-69
2022/10/29 07:33:11;;;;;;;19.83;3.17;;;15.90;81.70;;;;;;5083365;28;20024;-69
2022/10/29 07:35:37;;;;;;;5.00;2.72;;;16.00;81.70;;;;;;5080982;28;20081;-69
2022/10/29 07:38:05;;;;;;;5.95;2.90;;;16.10;81.70;;;;;;5086483;28;20020;-69
2022/10/29 07:40:31;;;;;;;5.43;2.53;;;16.10;81.70;;;;;;5086070;28;20333;-69
2022/10/29 07:42:57;;;;;;;3.58;2.45;;;16.20;81.70;;;;;;5090187;28;20085;-70
2022/10/29 07:45:23;;;;;;;3.53;2.60;;;16.30;81.90;;;;;;5092274;28;20028;-69
2022/10/29 07:47:56;;;;;;;13.95;2.60;;;16.30;81.70;;;;;;5092819;28;20451;-69
2022/10/29 07:50:22;;;;;;;3.33;2.47;;;16.40;81.70;;;;;;5092762;28;20032;-70
2022/10/29 07:52:47;;;;;;;5.10;3.13;;;16.50;81.60;;;;;;5094442;28;20476;-70
2022/10/29 07:55:13;;;;;;;7.28;3.53;;;16.60;82.20;;;;;;5092807;28;20074;-69
2022/10/29 07:57:39;;;;;;;4.28;2.72;;;16.70;81.50;;;;;;5089930;28;20530;-69
2022/10/29 08:00:05;;;;;;;5.75;2.88;;;16.80;81.60;;;;;;5092492;28;20539;-70
2022/10/29 08:02:31;;;;;;;5.97;3.22;;;16.80;81.50;;;;;;5089592;28;20028;-69
2022/10/29 08:04:56;;;;;;;3.03;2.30;;;16.90;81.60;;;;;;5091204;28;20028;-69
2022/10/29 08:07:22;;;;;;;3.20;2.47;;;16.90;81.60;;;;;;5091821;28;20028;-71
2022/10/29 08:09:48;;;;;;;4.95;2.83;;;17.00;81.70;;;;;;5068736;28;20032;-70
2022/10/29 08:12:13;;;;;;;6.07;4.10;;;17.00;81.70;;;;;;5089021;28;20495;-70
2022/10/29 08:14:39;;;;;;;4.38;3.25;;;17.10;81.70;;;;;;5088664;28;20123;-71
2022/10/29 08:17:04;;;;;;;6.88;3.47;;;17.10;81.70;;;;;;5065983;28;20176;-69
2022/10/29 08:19:30;;;;;;;6.18;3.13;;;17.20;81.70;;;;;;5084733;28;20024;-70
2022/10/29 08:21:56;;;;;;;4.57;3.10;;;17.20;82.30;;;;;;5086734;28;20035;-69
2022/10/29 08:24:21;;;;;;;5.30;3.55;;;17.30;81.70;;;;;;5088577;28;20040;-69
2022/10/29 08:26:49;;;;;;;4.70;3.25;;;17.30;81.80;;;;;;5087374;28;20063;-70
2022/10/29 08:29:14;;;;;;;9.20;3.22;;;17.40;81.70;;;;;;5089703;28;20110;-69
2022/10/29 08:31:40;;;;;;;3.05;2.30;;;17.40;81.60;;;;;;5088509;28;20534;-70
2022/10/29 08:34:06;;;;;;;6.97;3.88;;;17.50;81.60;;;;;;5089659;28;20028;-69
2022/10/29 08:36:31;;;;;;;4.60;2.85;;;17.50;81.70;;;;;;5090160;28;20043;-69
2022/10/29 08:38:57;;;;;;;4.18;2.88;;;17.60;81.70;;;;;;5085257;28;20387;-69
2022/10/29 08:41:47;;;;;;;7.05;2.97;;;17.70;81.60;;;;;;5090623;28;20483;-71
2022/10/29 08:44:32;;;;;;;4.70;3.83;;;17.80;81.60;;;;;;5087687;28;20080;-68
2022/10/29 08:47:00;;;;;;;5.10;3.53;;;18.00;81.40;;;;;;5079475;28;20988;-68
2022/10/29 08:49:33;;;;;;;5.82;3.10;;;18.10;81.30;;;;;;5085544;28;20665;-68
2022/10/29 08:52:08;;;;;;;8.80;2.85;;;18.20;81.10;;;;;;5085552;28;20068;-68
2022/10/29 08:54:38;;;;;;;5.13;2.95;;;18.30;81.10;;;;;;5100480;28;20025;-68
2022/10/29 08:57:14;;;;;;;3.30;2.97;;;18.30;81.10;;;;;;5098104;28;20046;-68
2022/10/29 08:59:58;;;;;;;5.47;3.03;;;18.30;81.10;;;;;;5093020;28;20115;-70
2022/10/29 09:02:24;;;;;;;7.47;3.95;;;18.30;81.20;;;;;;5086081;28;20021;-70
2022/10/29 09:04:50;;;;;;;3.95;2.70;;;18.30;81.20;;;;;;5096867;28;20551;-71
2022/10/29 09:07:46;;;;;;;6.82;2.80;;;18.40;81.10;;;;;;5082941;28;20065;-71
2022/10/29 09:10:28;;;;;;;5.32;2.70;;;18.50;81.00;;;;;;5080009;28;20082;-70
2022/10/29 09:13:31;;;;;;;4.95;2.75;;;18.50;81.00;;;;;;5084344;28;20036;-70
2022/10/29 09:16:06;;;;;;;4.97;2.78;;;18.60;80.90;;;;;;5085267;28;20424;-70
2022/10/29 09:18:50;;;;;;;4.15;2.80;;;18.60;81.00;;;;;;5095292;28;20027;-70
2022/10/29 09:21:52;;;;;;;6.65;3.10;;;18.80;80.90;;;;;;5080556;28;20030;-70
2022/10/29 09:24:56;;;;;;;5.60;3.20;;;19.00;80.60;;;;;;5090643;28;20024;-70
2022/10/29 09:27:45;;;;;;;4.07;2.63;;;19.00;80.50;;;;;;5075669;28;20568;-70
2022/10/29 09:30:15;;;;;;;4.78;3.30;;;19.00;80.50;;;;;;5085465;28;20028;-70
2022/10/29 09:33:08;;;;;;;5.47;2.80;;;19.00;80.50;;;;;;5091851;28;20028;-71
2022/10/29 09:35:43;;;;;;;3.47;2.40;;;19.00;80.50;;;;;;5094552;28;20443;-70
2022/10/29 09:38:34;;;;;;;5.57;2.88;;;19.00;80.60;;;;;;5087694;28;20020;-69
2022/10/29 09:41:01;;;;;;;9.20;3.58;;;18.90;80.70;;;;;;5081299;28;20433;-69
2022/10/29 09:43:32;;;;;;;9.02;2.72;;;18.90;80.80;;;;;;5091436;28;20478;-69
2022/10/29 09:46:08;;;;;;;10.07;3.57;;;18.80;80.90;;;;;;5092097;28;20460;-69
2022/10/29 09:48:42;;;;;;;5.22;2.45;;;18.80;80.90;;;;;;5103455;28;20312;-69
2022/10/29 09:51:45;;;;;;;5.00;2.55;;;18.80;80.90;;;;;;5085843;28;20841;-69
2022/10/29 09:54:11;;;;;;;7.47;2.83;;;18.80;80.90;;;;;;5081698;28;20393;-69
2022/10/29 09:56:43;;;;;;;3.40;2.28;;;18.80;81.00;;;;;;5097403;28;20044;-69
2022/10/29 09:59:33;;;;;;;3.08;2.35;;;18.80;80.90;;;;;;5090254;28;20046;-70
2022/10/29 10:01:59;;;;;;;6.93;3.33;;;18.80;80.80;;;;;;5083880;28;20051;-69
2022/10/29 10:04:39;;;;;;;2.85;2.35;;;18.80;80.80;;;;;;5084355;28;20099;-69
2022/10/29 10:07:10;;;;;;;16.92;3.22;;;18.80;80.80;;;;;;5086311;28;20027;-69
2022/10/29 10:10:06;;;;;;;3.10;2.05;;;18.80;80.90;;;;;;5089444;28;20028;-69
2022/10/29 10:12:38;;;;;;;9.90;3.38;;;18.80;80.80;;;;;;5075391;28;20086;-69
2022/10/29 10:15:17;;;;;;;5.60;3.42;;;18.80;81.00;;;;;;5094976;28;20378;-70
2022/10/29 10:17:55;;;;;;;4.57;2.38;;;18.80;80.90;;;;;;5092876;28;20016;-69
2022/10/29 10:20:43;;;;;;;5.07;2.33;;;18.80;80.90;;;;;;5089744;28;20657;-69
2022/10/29 10:23:38;;;;;;;5.85;2.25;;;18.80;81.00;;;;;;5087567;28;20054;-70
2022/10/29 10:26:03;;;;;;;10.55;3.00;;;18.80;81.00;;;;;;5078926;28;20062;-70
2022/10/29 10:28:33;;;;;;;6.30;2.60;;;18.80;81.10;;;;;;5088732;28;20028;-70
2022/10/29 10:31:14;;;;;;;13.88;2.92;;;18.80;81.00;;;;;;5088578;28;20024;-71
2022/10/29 10:33:52;;;;;;;3.75;2.28;;;18.90;81.00;;;;;;5088175;28;20036;-70
2022/10/29 10:36:21;;;;;;;4.10;3.08;;;18.90;81.00;;;;;;5086566;28;20031;-71
2022/10/29 10:38:49;;;;;;;5.95;2.38;;;19.00;80.90;;;;;;5084751;28;20436;-70
2022/10/29 10:41:25;;;;;;;5.40;3.17;;;19.10;80.80;;;;;;5089773;28;20082;-69
2022/10/29 10:43:53;;;;;;;3.47;2.53;;;19.30;80.70;;;;;;5099382;28;20030;-70
2022/10/29 10:46:26;;;;;;;11.77;2.90;;;19.50;80.40;;;;;;5090527;28;20060;-70
2022/10/29 10:49:12;;;;;;;4.55;2.45;;;19.80;80.20;;;;;;5090463;28;20036;-70
2022/10/29 10:51:43;;;;;;;6.10;2.97;;;20.10;79.30;;;;;;5085497;28;20394;-70
2022/10/29 10:54:35;;;;;;;5.30;3.60;;;20.40;79.00;;;;;;5109663;28;20023;-70
2022/10/29 10:57:10;;;;;;;;;;;20.80;78.40;;;;;;5111028;28;20035;-70
2022/10/29 10:59:50;;;;;;;2.90;2.58;;;21.30;78.10;;;;;;5092191;28;19908;-70
2022/10/29 11:02:33;;;;;;;8.93;2.92;;;21.80;77.00;;;;;;5076109;28;20020;-70
2022/10/29 11:05:15;;;;;;;5.55;2.83;;;22.30;75.50;;;;;;5099114;28;20018;-71
2022/10/29 11:07:47;;;;;;;3.20;2.38;;;22.40;74.80;;;;;;5102575;28;20103;-71
2022/10/29 11:10:15;;;;;;;3.95;2.70;;;22.30;74.40;;;;;;5076916;28;20032;-70
2022/10/29 11:12:49;;;;;;;2.50;1.95;;;22.10;75.10;;;;;;5085552;28;20069;-71
2022/10/29 11:15:36;;;;;;;3.83;2.28;;;21.90;75.30;;;;;;5083662;28;20024;-71
2022/10/29 11:18:18;;;;;;;2.55;2.08;;;21.80;75.50;;;;;;5103747;28;20023;-71
2022/10/29 11:20:52;;;;;;;2.83;2.40;;;21.80;75.80;;;;;;5109644;28;20020;-70
2022/10/29 11:24:06;;;;;;;7.38;3.20;;;21.90;75.50;;;;;;5098111;28;20032;-70
2022/10/29 11:26:38;;;;;;;4.53;2.53;;;22.10;75.00;;;;;;5088497;28;20495;-70
2022/10/29 11:29:16;;;;;;;3.70;1.98;;;22.20;74.50;;;;;;5089633;28;20498;-70
2022/10/29 11:32:01;;;;;;;2.40;2.10;;;22.20;74.50;;;;;;5079961;28;20146;-71
2022/10/29 11:34:38;;;;;;;1.95;1.65;;;22.10;74.60;;;;;;5078077;28;20024;-70
2022/10/29 11:37:28;;;;;;;12.65;3.00;;;22.20;74.60;;;;;;5086894;28;20012;-71
2022/10/29 11:40:43;;;;;;;2.60;2.17;;;22.30;74.30;;;;;;5089659;28;20030;-70
2022/10/29 11:43:11;;;;;;;2.65;1.70;;;22.60;73.90;;;;;;5076090;28;20043;-71
2022/10/29 11:45:52;;;;;;;4.03;1.80;;;23.10;73.40;;;;;;5102802;28;20016;-71
2022/10/29 11:48:36;;;;;;;2.00;1.75;;;24.00;72.10;;;;;;5089734;28;20032;-71
2022/10/29 11:51:28;;;;;;;3.40;1.70;;;25.40;69.00;;;;;;5083579;28;20053;-71
2022/10/29 11:54:01;;;;;;;6.00;1.48;;;26.90;65.30;;;;;;5099912;28;20036;-71
2022/10/29 11:56:45;;;;;;;2.45;1.75;;;28.30;62.10;;;;;;5108230;28;20069;-71
2022/10/29 11:59:31;;;;;;;2.28;1.33;;;29.40;59.50;;;;;;5101685;28;20020;-71
2022/10/29 12:02:24;;;;;;;3.90;2.10;;;30.80;57.50;;;;;;5086831;28;20024;-70
2022/10/29 12:04:57;;;;;;;6.20;2.22;;;31.50;55.20;;;;;;5108740;28;20027;-71
2022/10/29 12:08:02;;;;;;;3.22;2.15;;;30.80;55.10;;;;;;5109573;28;20012;-71
2022/10/29 12:10:37;;;;;;;2.65;1.65;;;29.20;56.40;;;;;;5107804;28;20093;-71
2022/10/29 12:13:22;;;;;;;2.70;1.45;;;27.80;58.80;;;;;;5109407;28;20035;-71
2022/10/29 12:16:09;;;;;;;2.45;1.30;;;28.10;59.80;;;;;;5109542;28;20417;-70
2022/10/29 12:18:37;;;;;;;2.35;1.42;;;28.70;58.10;;;;;;5084279;28;20021;-70
2022/10/29 12:21:28;;;;;;;3.00;1.80;;;28.50;57.70;;;;;;5089251;28;20020;-71
2022/10/29 12:24:02;;;;;;;3.58;1.50;;;28.10;58.00;;;;;;5077045;28;20056;-70
2022/10/29 12:26:31;;;;;;;2.35;1.10;;;27.60;59.10;;;;;;5087433;28;20042;-70
2022/10/29 12:29:20;;;;;;;2.00;1.60;;;26.90;60.20;;;;;;5088675;28;20028;-71
2022/10/29 12:32:13;;;;;;;3.83;1.80;;;26.30;61.40;;;;;;5087906;28;20073;-71
2022/10/29 12:35:01;;;;;;;2.08;1.45;;;25.70;62.40;;;;;;5089822;28;20024;-71
2022/10/29 12:37:58;;;;;;;2.42;1.20;;;25.30;63.30;;;;;;5089802;28;20475;-71
2022/10/29 12:40:29;;;;;;;2.22;1.42;;;25.00;63.90;;;;;;5094731;28;20024;-71
2022/10/29 12:42:59;;;;;;;1.55;1.02;;;24.80;64.50;;;;;;5094445;27;20467;-71
2022/10/29 12:45:38;;;;;;;1.48;1.38;;;24.70;64.70;;;;;;5091918;28;20024;-71
2022/10/29 12:48:35;;;;;;;5.03;1.95;;;24.80;64.60;;;;;;5091467;28;20038;-71
2022/10/29 12:51:19;;;;;;;5.00;1.10;;;24.90;64.50;;;;;;5088232;28;20042;-71
2022/10/29 12:54:22;;;;;;;1.95;1.48;;;25.00;64.50;;;;;;5083579;28;20035;-72
2022/10/29 12:56:49;;;;;;;1.73;1.50;;;25.20;64.30;;;;;;5088498;28;20048;-72
2022/10/29 12:59:23;;;;;;;1.88;1.40;;;25.10;63.80;;;;;;5087078;28;20035;-71
2022/10/29 13:01:50;;;;;;;1.63;1.38;;;25.10;64.20;;;;;;5089442;28;20421;-72
2022/10/29 13:04:32;;;;;;;2.10;1.75;;;25.30;64.00;;;;;;5088460;28;20474;-71
2022/10/29 13:07:18;;;;;;;1.83;1.45;;;25.20;63.60;;;;;;5089540;28;20024;-71
2022/10/29 13:09:44;;;;;;;2.38;1.58;;;25.10;63.70;;;;;;5089405;28;20016;-71